sensor_id;sensor_type;location;lat;lon;timestamp;temperature;humidity
6758;DHT22;3416;53.074;8.822;2022-11-09T00:02:20;15.30;99.90
6758;DHT22;3416;53.074;8.822;2022-11-09T00:04:46;15.30;99.90
6758;DHT22;3416;53.074;8.822;2022-11-09T00:07:13;15.40;99.90
6758;DHT22;3416;53.074;8.822;2022-11-09T00:09:40;15.20;99.90
6758;DHT22;3416;53.074;8.822;2022-11-09T00:12:09;14.90;99.90
6758;DHT22;3416;53.074;8.822;2022-11-09T00:14:35;14.90;99.90
6758;DHT22;3416;53.074;8.822;2022-11-09T00:17:03;14.90;99.90
6758;DHT22;3416;53.074;8.822;2022-11-09T00:19:30;14.90;99.90
6758;DHT22;3416;53.074;8.822;2022-11-09T00:21:57;14.70;99.90
6758;DHT22;3416;53.074;8.822;2022-11-09T00:24:23;14.60;99.90
6758;DHT22;3416;53.074;8.822;2022-11-09T00:26:50;14.60;99.90
6758;DHT22;3416;53.074;8.822;2022-11-09T00:29:18;14.60;99.90
6758;DHT22;3416;53.074;8.822;2022-11-09T00:31:45;14.60;99.90
6758;DHT22;3416;53.074;8.822;2022-11-09T00:34:13;14.50;99.90
6758;DHT22;3416;53.074;8.822;2022-11-09T00:36:40;14.60;99.90
6758;DHT22;3416;53.074;8.822;2022-11-09T00:39:07;14.60;99.90
6758;DHT22;3416;53.074;8.822;2022-11-09T00:41:34;14.60;99.90
6758;DHT22;3416;53.074;8.822;2022-11-09T00:44:01;14.40;99.90
6758;DHT22;3416;53.074;8.822;2022-11-09T00:46:29;14.40;99.90
6758;DHT22;3416;53.074;8.822;2022-11-09T00:48:56;14.30;99.90
6758;DHT22;3416;53.074;8.822;2022-11-09T00:51:23;14.30;99.90
6758;DHT22;3416;53.074;8.822;2022-11-09T00:53:50;14.20;99.90
6758;DHT22;3416;53.074;8.822;2022-11-09T00:56:19;14.20;99.90
6758;DHT22;3416;53.074;8.822;2022-11-09T00:58:46;14.20;99.90
6758;DHT22;3416;53.074;8.822;2022-11-09T01:01:15;14.20;99.90
6758;DHT22;3416;53.074;8.822;2022-11-09T01:03:44;14.20;99.90
6758;DHT22;3416;53.074;8.822;2022-11-09T01:06:14;14.30;99.90
6758;DHT22;3416;53.074;8.822;2022-11-09T01:08:41;14.10;99.90
6758;DHT22;3416;53.074;8.822;2022-11-09T01:11:09;14.00;99.90
6758;DHT22;3416;53.074;8.822;2022-11-09T01:13:37;14.10;99.90
6758;DHT22;3416;53.074;8.822;2022-11-09T01:16:05;14.00;99.90
6758;DHT22;3416;53.074;8.822;2022-11-09T01:18:32;14.00;99.90
6758;DHT22;3416;53.074;8.822;2022-11-09T01:21:02;14.00;99.90
6758;DHT22;3416;53.074;8.822;2022-11-09T01:23:29;14.00;99.90
6758;DHT22;3416;53.074;8.822;2022-11-09T01:25:59;14.00;99.90
6758;DHT22;3416;53.074;8.822;2022-11-09T01:28:26;14.10;99.90
6758;DHT22;3416;53.074;8.822;2022-11-09T01:30:53;14.30;99.90
6758;DHT22;3416;53.074;8.822;2022-11-09T01:33:20;14.20;99.90
6758;DHT22;3416;53.074;8.822;2022-11-09T01:35:47;14.20;99.90
6758;DHT22;3416;53.074;8.822;2022-11-09T01:38:15;14.20;99.90
6758;DHT22;3416;53.074;8.822;2022-11-09T01:40:42;14.30;99.90
6758;DHT22;3416;53.074;8.822;2022-11-09T01:43:14;14.30;99.90
6758;DHT22;3416;53.074;8.822;2022-11-09T01:45:42;14.20;99.90
6758;DHT22;3416;53.074;8.822;2022-11-09T01:48:12;14.30;99.90
6758;DHT22;3416;53.074;8.822;2022-11-09T01:50:42;14.30;99.90
6758;DHT22;3416;53.074;8.822;2022-11-09T01:53:13;14.20;99.90
6758;DHT22;3416;53.074;8.822;2022-11-09T01:55:43;14.20;99.90
6758;DHT22;3416;53.074;8.822;2022-11-09T01:58:15;14.30;99.90
6758;DHT22;3416;53.074;8.822;2022-11-09T02:00:44;14.40;99.90
6758;DHT22;3416;53.074;8.822;2022-11-09T02:03:18;14.40;99.90
6758;DHT22;3416;53.074;8.822;2022-11-09T02:05:47;14.40;99.90
6758;DHT22;3416;53.074;8.822;2022-11-09T02:08:17;14.30;99.90
6758;DHT22;3416;53.074;8.822;2022-11-09T02:11:06;14.40;99.90
6758;DHT22;3416;53.074;8.822;2022-11-09T02:13:34;14.50;99.90
6758;DHT22;3416;53.074;8.822;2022-11-09T02:16:03;14.40;99.90
6758;DHT22;3416;53.074;8.822;2022-11-09T02:18:32;14.40;99.90
6758;DHT22;3416;53.074;8.822;2022-11-09T02:21:00;14.40;99.90
6758;DHT22;3416;53.074;8.822;2022-11-09T02:23:29;14.40;99.90
6758;DHT22;3416;53.074;8.822;2022-11-09T02:25:58;14.40;99.90
6758;DHT22;3416;53.074;8.822;2022-11-09T02:28:27;14.40;99.90
6758;DHT22;3416;53.074;8.822;2022-11-09T02:30:55;14.40;99.90
6758;DHT22;3416;53.074;8.822;2022-11-09T02:33:22;14.40;99.90
6758;DHT22;3416;53.074;8.822;2022-11-09T02:35:50;14.40;99.90
6758;DHT22;3416;53.074;8.822;2022-11-09T02:38:18;14.30;99.90
6758;DHT22;3416;53.074;8.822;2022-11-09T02:40:47;14.20;99.90
6758;DHT22;3416;53.074;8.822;2022-11-09T02:43:15;14.30;99.90
6758;DHT22;3416;53.074;8.822;2022-11-09T02:45:42;14.30;99.90
6758;DHT22;3416;53.074;8.822;2022-11-09T02:48:09;14.30;99.90
6758;DHT22;3416;53.074;8.822;2022-11-09T02:50:36;14.20;99.90
6758;DHT22;3416;53.074;8.822;2022-11-09T02:53:03;14.20;99.90
6758;DHT22;3416;53.074;8.822;2022-11-09T02:55:31;14.20;99.90
6758;DHT22;3416;53.074;8.822;2022-11-09T02:57:58;14.20;99.90
6758;DHT22;3416;53.074;8.822;2022-11-09T03:00:24;14.20;99.90
6758;DHT22;3416;53.074;8.822;2022-11-09T03:02:51;14.20;99.90
6758;DHT22;3416;53.074;8.822;2022-11-09T03:05:18;14.20;99.90
6758;DHT22;3416;53.074;8.822;2022-11-09T03:07:45;14.30;99.90
6758;DHT22;3416;53.074;8.822;2022-11-09T03:10:12;14.30;99.90
6758;DHT22;3416;53.074;8.822;2022-11-09T03:12:40;14.30;99.90
6758;DHT22;3416;53.074;8.822;2022-11-09T03:15:08;14.30;99.90
6758;DHT22;3416;53.074;8.822;2022-11-09T03:17:35;14.20;99.90
6758;DHT22;3416;53.074;8.822;2022-11-09T03:20:02;14.20;99.90
6758;DHT22;3416;53.074;8.822;2022-11-09T03:22:29;14.10;99.90
6758;DHT22;3416;53.074;8.822;2022-11-09T03:24:56;14.00;99.90
6758;DHT22;3416;53.074;8.822;2022-11-09T03:27:23;14.10;99.90
6758;DHT22;3416;53.074;8.822;2022-11-09T03:29:51;14.10;99.90
6758;DHT22;3416;53.074;8.822;2022-11-09T03:32:18;14.20;99.90
6758;DHT22;3416;53.074;8.822;2022-11-09T03:34:45;14.10;99.90
6758;DHT22;3416;53.074;8.822;2022-11-09T03:37:12;14.10;99.90
6758;DHT22;3416;53.074;8.822;2022-11-09T03:39:38;14.10;99.90
6758;DHT22;3416;53.074;8.822;2022-11-09T03:42:05;14.10;99.90
6758;DHT22;3416;53.074;8.822;2022-11-09T03:44:32;14.00;99.90
6758;DHT22;3416;53.074;8.822;2022-11-09T03:47:00;14.00;99.90
6758;DHT22;3416;53.074;8.822;2022-11-09T03:49:27;14.10;99.90
6758;DHT22;3416;53.074;8.822;2022-11-09T03:51:54;14.00;99.90
6758;DHT22;3416;53.074;8.822;2022-11-09T03:54:21;14.20;99.90
6758;DHT22;3416;53.074;8.822;2022-11-09T03:56:48;14.20;99.90
6758;DHT22;3416;53.074;8.822;2022-11-09T03:59:14;14.20;99.90
6758;DHT22;3416;53.074;8.822;2022-11-09T04:01:41;14.20;99.90
6758;DHT22;3416;53.074;8.822;2022-11-09T04:04:09;14.30;99.90
6758;DHT22;3416;53.074;8.822;2022-11-09T04:06:36;14.20;99.90
6758;DHT22;3416;53.074;8.822;2022-11-09T04:09:03;14.10;99.90
6758;DHT22;3416;53.074;8.822;2022-11-09T04:11:30;14.10;99.90
6758;DHT22;3416;53.074;8.822;2022-11-09T04:13:57;14.10;99.90
6758;DHT22;3416;53.074;8.822;2022-11-09T04:16:23;14.10;99.90
6758;DHT22;3416;53.074;8.822;2022-11-09T04:18:50;14.20;99.90
6758;DHT22;3416;53.074;8.822;2022-11-09T04:21:18;14.20;99.90
6758;DHT22;3416;53.074;8.822;2022-11-09T04:23:47;14.10;99.90
6758;DHT22;3416;53.074;8.822;2022-11-09T04:26:13;14.20;99.90
6758;DHT22;3416;53.074;8.822;2022-11-09T04:28:40;14.20;99.90
6758;DHT22;3416;53.074;8.822;2022-11-09T04:31:07;14.10;99.90
6758;DHT22;3416;53.074;8.822;2022-11-09T04:33:34;14.10;99.90
6758;DHT22;3416;53.074;8.822;2022-11-09T04:36:09;14.10;99.90
6758;DHT22;3416;53.074;8.822;2022-11-09T04:38:37;14.20;99.90
6758;DHT22;3416;53.074;8.822;2022-11-09T04:41:04;14.30;99.90
6758;DHT22;3416;53.074;8.822;2022-11-09T04:43:33;14.30;99.90
6758;DHT22;3416;53.074;8.822;2022-11-09T04:46:00;14.40;99.90
6758;DHT22;3416;53.074;8.822;2022-11-09T04:48:27;14.40;99.90
6758;DHT22;3416;53.074;8.822;2022-11-09T04:50:58;14.40;99.90
6758;DHT22;3416;53.074;8.822;2022-11-09T04:53:26;14.50;99.90
6758;DHT22;3416;53.074;8.822;2022-11-09T04:55:55;14.60;99.90
6758;DHT22;3416;53.074;8.822;2022-11-09T04:58:22;14.60;99.90
6758;DHT22;3416;53.074;8.822;2022-11-09T05:00:49;14.60;99.90
6758;DHT22;3416;53.074;8.822;2022-11-09T05:03:16;14.60;99.90
6758;DHT22;3416;53.074;8.822;2022-11-09T05:05:43;14.50;99.90
6758;DHT22;3416;53.074;8.822;2022-11-09T05:08:10;14.40;99.90
6758;DHT22;3416;53.074;8.822;2022-11-09T05:10:37;14.40;99.90
6758;DHT22;3416;53.074;8.822;2022-11-09T05:13:07;14.30;99.90
6758;DHT22;3416;53.074;8.822;2022-11-09T05:15:35;14.30;99.90
6758;DHT22;3416;53.074;8.822;2022-11-09T05:18:03;14.20;99.90
6758;DHT22;3416;53.074;8.822;2022-11-09T05:20:30;14.20;99.90
6758;DHT22;3416;53.074;8.822;2022-11-09T05:22:57;14.20;99.90
6758;DHT22;3416;53.074;8.822;2022-11-09T05:25:42;14.20;99.90
6758;DHT22;3416;53.074;8.822;2022-11-09T05:28:11;14.20;99.90
6758;DHT22;3416;53.074;8.822;2022-11-09T05:30:38;14.20;99.90
6758;DHT22;3416;53.074;8.822;2022-11-09T05:33:05;14.20;99.90
6758;DHT22;3416;53.074;8.822;2022-11-09T05:35:32;14.30;99.90
6758;DHT22;3416;53.074;8.822;2022-11-09T05:37:59;14.20;99.90
6758;DHT22;3416;53.074;8.822;2022-11-09T05:40:25;14.10;99.90
6758;DHT22;3416;53.074;8.822;2022-11-09T05:42:52;14.00;99.90
6758;DHT22;3416;53.074;8.822;2022-11-09T05:45:22;14.10;99.90
6758;DHT22;3416;53.074;8.822;2022-11-09T05:47:50;14.10;99.90
6758;DHT22;3416;53.074;8.822;2022-11-09T05:50:17;14.10;99.90
6758;DHT22;3416;53.074;8.822;2022-11-09T05:52:44;14.00;99.90
6758;DHT22;3416;53.074;8.822;2022-11-09T05:55:11;14.10;99.90
6758;DHT22;3416;53.074;8.822;2022-11-09T05:57:38;14.10;99.90
6758;DHT22;3416;53.074;8.822;2022-11-09T06:00:06;14.10;99.90
6758;DHT22;3416;53.074;8.822;2022-11-09T06:02:34;14.10;99.90
6758;DHT22;3416;53.074;8.822;2022-11-09T06:05:01;14.10;99.90
6758;DHT22;3416;53.074;8.822;2022-11-09T06:07:28;14.10;99.90
6758;DHT22;3416;53.074;8.822;2022-11-09T06:09:55;14.00;99.90
6758;DHT22;3416;53.074;8.822;2022-11-09T06:12:22;14.10;99.90
6758;DHT22;3416;53.074;8.822;2022-11-09T06:14:49;14.00;99.90
6758;DHT22;3416;53.074;8.822;2022-11-09T06:17:15;14.00;99.90
6758;DHT22;3416;53.074;8.822;2022-11-09T06:19:44;14.00;99.90
6758;DHT22;3416;53.074;8.822;2022-11-09T06:22:10;14.00;99.90
6758;DHT22;3416;53.074;8.822;2022-11-09T06:24:38;14.00;99.90
6758;DHT22;3416;53.074;8.822;2022-11-09T06:27:04;14.00;99.90
6758;DHT22;3416;53.074;8.822;2022-11-09T06:29:31;14.00;99.90
6758;DHT22;3416;53.074;8.822;2022-11-09T06:31:58;14.00;99.90
6758;DHT22;3416;53.074;8.822;2022-11-09T06:34:25;14.00;99.90
6758;DHT22;3416;53.074;8.822;2022-11-09T06:36:53;14.10;99.90
6758;DHT22;3416;53.074;8.822;2022-11-09T06:39:20;14.00;99.90
6758;DHT22;3416;53.074;8.822;2022-11-09T06:41:47;14.00;99.90
6758;DHT22;3416;53.074;8.822;2022-11-09T06:44:14;14.10;99.90
6758;DHT22;3416;53.074;8.822;2022-11-09T06:46:42;14.10;99.90
6758;DHT22;3416;53.074;8.822;2022-11-09T06:49:09;14.10;99.90
6758;DHT22;3416;53.074;8.822;2022-11-09T06:51:36;14.20;99.90
6758;DHT22;3416;53.074;8.822;2022-11-09T06:54:12;14.20;99.90
6758;DHT22;3416;53.074;8.822;2022-11-09T06:56:39;14.20;99.90
6758;DHT22;3416;53.074;8.822;2022-11-09T06:59:06;14.30;99.90
6758;DHT22;3416;53.074;8.822;2022-11-09T07:01:33;14.20;99.90
6758;DHT22;3416;53.074;8.822;2022-11-09T07:04:02;14.20;99.90
6758;DHT22;3416;53.074;8.822;2022-11-09T07:06:29;14.10;99.90
6758;DHT22;3416;53.074;8.822;2022-11-09T07:08:57;14.20;99.90
6758;DHT22;3416;53.074;8.822;2022-11-09T07:11:26;14.10;99.90
6758;DHT22;3416;53.074;8.822;2022-11-09T07:13:53;14.10;99.90
6758;DHT22;3416;53.074;8.822;2022-11-09T07:16:20;14.10;99.90
6758;DHT22;3416;53.074;8.822;2022-11-09T07:18:47;14.20;99.90
6758;DHT22;3416;53.074;8.822;2022-11-09T07:21:14;14.20;99.90
6758;DHT22;3416;53.074;8.822;2022-11-09T07:23:41;14.30;99.90
6758;DHT22;3416;53.074;8.822;2022-11-09T07:26:08;14.30;99.90
6758;DHT22;3416;53.074;8.822;2022-11-09T07:28:36;14.20;99.90
6758;DHT22;3416;53.074;8.822;2022-11-09T07:31:03;14.30;99.90
6758;DHT22;3416;53.074;8.822;2022-11-09T07:33:31;14.30;99.90
6758;DHT22;3416;53.074;8.822;2022-11-09T07:35:58;14.30;99.90
6758;DHT22;3416;53.074;8.822;2022-11-09T07:38:27;14.30;99.90
6758;DHT22;3416;53.074;8.822;2022-11-09T07:40:57;14.30;99.90
6758;DHT22;3416;53.074;8.822;2022-11-09T07:43:25;14.30;99.90
6758;DHT22;3416;53.074;8.822;2022-11-09T07:45:54;14.50;99.90
6758;DHT22;3416;53.074;8.822;2022-11-09T07:48:27;15.00;99.90
6758;DHT22;3416;53.074;8.822;2022-11-09T07:50:54;15.30;99.90
6758;DHT22;3416;53.074;8.822;2022-11-09T07:53:21;15.30;99.90
6758;DHT22;3416;53.074;8.822;2022-11-09T07:55:55;15.50;99.90
6758;DHT22;3416;53.074;8.822;2022-11-09T07:58:22;15.90;99.90
6758;DHT22;3416;53.074;8.822;2022-11-09T08:00:50;16.10;99.90
6758;DHT22;3416;53.074;8.822;2022-11-09T08:03:19;16.30;99.90
6758;DHT22;3416;53.074;8.822;2022-11-09T08:05:47;16.30;99.90
6758;DHT22;3416;53.074;8.822;2022-11-09T08:08:14;16.70;99.90
6758;DHT22;3416;53.074;8.822;2022-11-09T08:10:41;17.10;99.90
6758;DHT22;3416;53.074;8.822;2022-11-09T08:13:10;17.30;99.90
6758;DHT22;3416;53.074;8.822;2022-11-09T08:15:38;17.40;99.90
6758;DHT22;3416;53.074;8.822;2022-11-09T08:18:08;17.20;99.90
6758;DHT22;3416;53.074;8.822;2022-11-09T08:20:37;17.10;99.90
6758;DHT22;3416;53.074;8.822;2022-11-09T08:23:04;17.50;99.90
6758;DHT22;3416;53.074;8.822;2022-11-09T08:25:32;18.40;99.90
6758;DHT22;3416;53.074;8.822;2022-11-09T08:28:00;19.20;99.90
6758;DHT22;3416;53.074;8.822;2022-11-09T08:30:28;20.50;99.90
6758;DHT22;3416;53.074;8.822;2022-11-09T08:32:55;21.10;98.30
6758;DHT22;3416;53.074;8.822;2022-11-09T08:35:23;21.20;96.70
6758;DHT22;3416;53.074;8.822;2022-11-09T08:37:54;21.10;96.40
6758;DHT22;3416;53.074;8.822;2022-11-09T08:40:22;20.00;96.40
6758;DHT22;3416;53.074;8.822;2022-11-09T08:42:50;19.90;98.00
6758;DHT22;3416;53.074;8.822;2022-11-09T08:45:17;20.00;98.70
6758;DHT22;3416;53.074;8.822;2022-11-09T08:47:44;20.40;98.60
6758;DHT22;3416;53.074;8.822;2022-11-09T08:50:12;20.40;97.30
6758;DHT22;3416;53.074;8.822;2022-11-09T08:52:39;20.70;97.00
6758;DHT22;3416;53.074;8.822;2022-11-09T08:55:09;21.70;96.20
6758;DHT22;3416;53.074;8.822;2022-11-09T08:57:36;21.10;95.00
6758;DHT22;3416;53.074;8.822;2022-11-09T09:00:04;21.00;95.40
6758;DHT22;3416;53.074;8.822;2022-11-09T09:02:31;20.60;96.00
6758;DHT22;3416;53.074;8.822;2022-11-09T09:04:58;20.00;96.90
6758;DHT22;3416;53.074;8.822;2022-11-09T09:07:26;20.30;97.10
6758;DHT22;3416;53.074;8.822;2022-11-09T09:09:54;20.70;96.40
6758;DHT22;3416;53.074;8.822;2022-11-09T09:12:22;20.30;96.40
6758;DHT22;3416;53.074;8.822;2022-11-09T09:14:49;20.00;97.10
6758;DHT22;3416;53.074;8.822;2022-11-09T09:17:16;19.90;97.40
6758;DHT22;3416;53.074;8.822;2022-11-09T09:19:44;19.70;97.60
6758;DHT22;3416;53.074;8.822;2022-11-09T09:22:11;18.90;98.00
6758;DHT22;3416;53.074;8.822;2022-11-09T09:24:45;18.20;99.90
6758;DHT22;3416;53.074;8.822;2022-11-09T09:27:12;18.20;99.90
6758;DHT22;3416;53.074;8.822;2022-11-09T09:29:40;18.00;99.90
6758;DHT22;3416;53.074;8.822;2022-11-09T09:32:08;17.50;99.90
6758;DHT22;3416;53.074;8.822;2022-11-09T09:34:34;17.50;99.90
6758;DHT22;3416;53.074;8.822;2022-11-09T09:37:01;17.30;99.90
6758;DHT22;3416;53.074;8.822;2022-11-09T09:39:30;16.90;99.90
6758;DHT22;3416;53.074;8.822;2022-11-09T09:41:59;16.60;99.90
6758;DHT22;3416;53.074;8.822;2022-11-09T09:44:31;16.70;99.90
6758;DHT22;3416;53.074;8.822;2022-11-09T09:47:08;17.00;99.90
6758;DHT22;3416;53.074;8.822;2022-11-09T09:49:39;17.20;99.90
6758;DHT22;3416;53.074;8.822;2022-11-09T09:52:15;17.50;99.90
6758;DHT22;3416;53.074;8.822;2022-11-09T09:54:49;17.50;99.90
6758;DHT22;3416;53.074;8.822;2022-11-09T09:57:20;17.30;99.90
6758;DHT22;3416;53.074;8.822;2022-11-09T09:59:49;17.50;99.90
6758;DHT22;3416;53.074;8.822;2022-11-09T10:02:21;17.20;99.90
6758;DHT22;3416;53.074;8.822;2022-11-09T10:04:50;17.20;99.90
6758;DHT22;3416;53.074;8.822;2022-11-09T10:07:23;17.50;99.90
6758;DHT22;3416;53.074;8.822;2022-11-09T10:10:14;17.50;99.90
6758;DHT22;3416;53.074;8.822;2022-11-09T10:13:09;17.70;99.90
6758;DHT22;3416;53.074;8.822;2022-11-09T10:15:43;17.50;99.90
6758;DHT22;3416;53.074;8.822;2022-11-09T10:18:33;17.40;99.90
6758;DHT22;3416;53.074;8.822;2022-11-09T10:21:12;17.40;99.90
6758;DHT22;3416;53.074;8.822;2022-11-09T10:23:51;17.40;99.90
6758;DHT22;3416;53.074;8.822;2022-11-09T10:26:27;17.40;99.90
6758;DHT22;3416;53.074;8.822;2022-11-09T10:29:00;17.20;99.90
6758;DHT22;3416;53.074;8.822;2022-11-09T10:31:31;17.20;99.90
6758;DHT22;3416;53.074;8.822;2022-11-09T10:34:05;16.80;99.90
6758;DHT22;3416;53.074;8.822;2022-11-09T10:36:40;16.70;99.90
6758;DHT22;3416;53.074;8.822;2022-11-09T10:39:12;17.00;99.90
6758;DHT22;3416;53.074;8.822;2022-11-09T10:41:41;16.70;99.90
6758;DHT22;3416;53.074;8.822;2022-11-09T10:44:16;16.60;99.90
6758;DHT22;3416;53.074;8.822;2022-11-09T10:47:05;16.50;99.90
6758;DHT22;3416;53.074;8.822;2022-11-09T10:49:34;16.60;99.90
6758;DHT22;3416;53.074;8.822;2022-11-09T10:52:02;16.70;99.90
6758;DHT22;3416;53.074;8.822;2022-11-09T10:54:31;16.80;99.90
6758;DHT22;3416;53.074;8.822;2022-11-09T10:57:09;16.40;99.90
6758;DHT22;3416;53.074;8.822;2022-11-09T10:59:44;16.20;99.90
6758;DHT22;3416;53.074;8.822;2022-11-09T11:02:39;16.10;99.90
6758;DHT22;3416;53.074;8.822;2022-11-09T11:05:32;15.70;99.90
6758;DHT22;3416;53.074;8.822;2022-11-09T11:08:33;15.60;99.90
6758;DHT22;3416;53.074;8.822;2022-11-09T11:11:19;15.80;99.90
6758;DHT22;3416;53.074;8.822;2022-11-09T11:13:47;15.60;99.90
6758;DHT22;3416;53.074;8.822;2022-11-09T11:16:26;15.70;99.90
6758;DHT22;3416;53.074;8.822;2022-11-09T11:18:54;15.90;99.90
6758;DHT22;3416;53.074;8.822;2022-11-09T11:21:26;15.80;99.90
6758;DHT22;3416;53.074;8.822;2022-11-09T11:24:16;15.90;99.90
6758;DHT22;3416;53.074;8.822;2022-11-09T11:26:52;15.90;99.90
6758;DHT22;3416;53.074;8.822;2022-11-09T11:29:31;16.00;99.90
6758;DHT22;3416;53.074;8.822;2022-11-09T11:31:59;16.00;99.90
6758;DHT22;3416;53.074;8.822;2022-11-09T11:34:26;16.00;99.90
6758;DHT22;3416;53.074;8.822;2022-11-09T11:37:05;16.00;99.90
6758;DHT22;3416;53.074;8.822;2022-11-09T11:39:44;16.00;99.90
6758;DHT22;3416;53.074;8.822;2022-11-09T11:42:28;15.90;99.90
6758;DHT22;3416;53.074;8.822;2022-11-09T11:45:14;15.80;99.90
6758;DHT22;3416;53.074;8.822;2022-11-09T11:47:52;15.80;99.90
6758;DHT22;3416;53.074;8.822;2022-11-09T11:50:30;15.80;99.90
6758;DHT22;3416;53.074;8.822;2022-11-09T11:53:23;15.80;99.90
6758;DHT22;3416;53.074;8.822;2022-11-09T11:56:15;15.80;99.90
6758;DHT22;3416;53.074;8.822;2022-11-09T12:01:43;15.80;99.90
6758;DHT22;3416;53.074;8.822;2022-11-09T12:04:34;16.00;99.90
6758;DHT22;3416;53.074;8.822;2022-11-09T12:07:23;15.90;99.90
6758;DHT22;3416;53.074;8.822;2022-11-09T12:10:06;15.90;99.90
6758;DHT22;3416;53.074;8.822;2022-11-09T12:12:44;15.90;99.90
6758;DHT22;3416;53.074;8.822;2022-11-09T12:15:25;15.80;99.90
6758;DHT22;3416;53.074;8.822;2022-11-09T12:18:02;15.80;99.90
6758;DHT22;3416;53.074;8.822;2022-11-09T12:20:37;16.00;99.90
6758;DHT22;3416;53.074;8.822;2022-11-09T12:23:19;16.10;99.90
6758;DHT22;3416;53.074;8.822;2022-11-09T12:25:57;16.20;99.90
6758;DHT22;3416;53.074;8.822;2022-11-09T12:28:51;16.10;99.90
6758;DHT22;3416;53.074;8.822;2022-11-09T12:31:28;16.20;99.90
6758;DHT22;3416;53.074;8.822;2022-11-09T12:34:01;16.10;99.90
6758;DHT22;3416;53.074;8.822;2022-11-09T12:36:33;16.10;99.90
6758;DHT22;3416;53.074;8.822;2022-11-09T12:39:09;16.10;99.90
6758;DHT22;3416;53.074;8.822;2022-11-09T12:41:39;16.20;99.90
6758;DHT22;3416;53.074;8.822;2022-11-09T12:44:12;16.00;99.90
6758;DHT22;3416;53.074;8.822;2022-11-09T12:46:44;16.00;99.90
6758;DHT22;3416;53.074;8.822;2022-11-09T12:49:26;15.90;99.90
6758;DHT22;3416;53.074;8.822;2022-11-09T12:51:56;16.10;99.90
6758;DHT22;3416;53.074;8.822;2022-11-09T12:54:23;16.20;99.90
6758;DHT22;3416;53.074;8.822;2022-11-09T12:56:54;16.30;99.90
6758;DHT22;3416;53.074;8.822;2022-11-09T12:59:37;16.40;99.90
6758;DHT22;3416;53.074;8.822;2022-11-09T13:02:29;16.20;99.90
6758;DHT22;3416;53.074;8.822;2022-11-09T13:04:58;16.20;99.90
6758;DHT22;3416;53.074;8.822;2022-11-09T13:10:25;16.20;99.90
6758;DHT22;3416;53.074;8.822;2022-11-09T13:13:03;16.30;99.90
6758;DHT22;3416;53.074;8.822;2022-11-09T13:15:32;16.30;99.90
6758;DHT22;3416;53.074;8.822;2022-11-09T13:18:02;16.10;99.90
6758;DHT22;3416;53.074;8.822;2022-11-09T13:20:44;16.10;99.90
6758;DHT22;3416;53.074;8.822;2022-11-09T13:23:35;16.10;99.90
6758;DHT22;3416;53.074;8.822;2022-11-09T13:26:03;16.10;99.90
6758;DHT22;3416;53.074;8.822;2022-11-09T13:34:46;16.20;99.90
6758;DHT22;3416;53.074;8.822;2022-11-09T13:37:52;16.10;99.90
6758;DHT22;3416;53.074;8.822;2022-11-09T13:40:40;16.10;99.90
6758;DHT22;3416;53.074;8.822;2022-11-09T13:43:20;15.90;99.90
6758;DHT22;3416;53.074;8.822;2022-11-09T13:45:50;16.00;99.90
6758;DHT22;3416;53.074;8.822;2022-11-09T13:48:40;15.90;99.90
6758;DHT22;3416;53.074;8.822;2022-11-09T13:51:11;15.90;99.90
6758;DHT22;3416;53.074;8.822;2022-11-09T13:53:56;15.80;99.90
6758;DHT22;3416;53.074;8.822;2022-11-09T13:56:32;15.80;99.90
6758;DHT22;3416;53.074;8.822;2022-11-09T13:59:12;15.80;99.90
6758;DHT22;3416;53.074;8.822;2022-11-09T14:01:48;15.90;99.90
6758;DHT22;3416;53.074;8.822;2022-11-09T14:04:20;16.20;99.90
6758;DHT22;3416;53.074;8.822;2022-11-09T14:06:59;16.10;99.90
6758;DHT22;3416;53.074;8.822;2022-11-09T14:09:27;16.20;99.90
6758;DHT22;3416;53.074;8.822;2022-11-09T14:14:57;16.00;99.90
6758;DHT22;3416;53.074;8.822;2022-11-09T14:17:33;15.80;99.90
6758;DHT22;3416;53.074;8.822;2022-11-09T14:20:08;15.80;99.90
6758;DHT22;3416;53.074;8.822;2022-11-09T14:22:40;15.70;99.90
6758;DHT22;3416;53.074;8.822;2022-11-09T14:25:15;15.60;99.90
6758;DHT22;3416;53.074;8.822;2022-11-09T14:27:50;15.50;99.90
6758;DHT22;3416;53.074;8.822;2022-11-09T14:30:24;15.50;99.90
6758;DHT22;3416;53.074;8.822;2022-11-09T14:32:53;15.50;99.90
6758;DHT22;3416;53.074;8.822;2022-11-09T14:35:23;15.60;99.90
6758;DHT22;3416;53.074;8.822;2022-11-09T14:37:55;15.50;99.90
6758;DHT22;3416;53.074;8.822;2022-11-09T14:40:25;15.50;99.90
6758;DHT22;3416;53.074;8.822;2022-11-09T14:42:54;15.50;99.90
6758;DHT22;3416;53.074;8.822;2022-11-09T14:45:23;15.30;99.90
6758;DHT22;3416;53.074;8.822;2022-11-09T14:47:59;15.30;99.90
6758;DHT22;3416;53.074;8.822;2022-11-09T14:50:29;15.20;99.90
6758;DHT22;3416;53.074;8.822;2022-11-09T14:53:14;15.30;99.90
6758;DHT22;3416;53.074;8.822;2022-11-09T14:55:44;15.30;99.90
6758;DHT22;3416;53.074;8.822;2022-11-09T14:58:14;15.30;99.90
6758;DHT22;3416;53.074;8.822;2022-11-09T15:00:41;15.30;99.90
6758;DHT22;3416;53.074;8.822;2022-11-09T15:03:33;15.30;99.90
6758;DHT22;3416;53.074;8.822;2022-11-09T15:06:15;15.30;99.90
6758;DHT22;3416;53.074;8.822;2022-11-09T15:08:49;15.30;99.90
6758;DHT22;3416;53.074;8.822;2022-11-09T15:11:17;15.20;99.90
6758;DHT22;3416;53.074;8.822;2022-11-09T15:13:45;15.20;99.90
6758;DHT22;3416;53.074;8.822;2022-11-09T15:16:20;15.30;99.90
6758;DHT22;3416;53.074;8.822;2022-11-09T15:18:47;15.20;99.90
6758;DHT22;3416;53.074;8.822;2022-11-09T15:21:18;15.30;99.90
6758;DHT22;3416;53.074;8.822;2022-11-09T15:24:10;15.20;99.90
6758;DHT22;3416;53.074;8.822;2022-11-09T15:26:42;15.20;99.90
6758;DHT22;3416;53.074;8.822;2022-11-09T15:29:29;15.20;99.90
6758;DHT22;3416;53.074;8.822;2022-11-09T15:32:10;15.30;99.90
6758;DHT22;3416;53.074;8.822;2022-11-09T15:34:39;15.20;99.90
6758;DHT22;3416;53.074;8.822;2022-11-09T15:37:18;15.20;99.90
6758;DHT22;3416;53.074;8.822;2022-11-09T15:39:47;15.20;99.90
6758;DHT22;3416;53.074;8.822;2022-11-09T15:42:14;15.10;99.90
6758;DHT22;3416;53.074;8.822;2022-11-09T15:44:41;14.90;99.90
6758;DHT22;3416;53.074;8.822;2022-11-09T15:47:19;14.80;99.90
6758;DHT22;3416;53.074;8.822;2022-11-09T15:49:46;14.80;99.90
6758;DHT22;3416;53.074;8.822;2022-11-09T15:52:14;14.80;99.90
6758;DHT22;3416;53.074;8.822;2022-11-09T15:54:53;14.60;99.90
6758;DHT22;3416;53.074;8.822;2022-11-09T15:57:20;14.60;99.90
6758;DHT22;3416;53.074;8.822;2022-11-09T15:59:49;14.60;99.90
6758;DHT22;3416;53.074;8.822;2022-11-09T16:02:17;14.60;99.90
6758;DHT22;3416;53.074;8.822;2022-11-09T16:04:44;14.50;99.90
6758;DHT22;3416;53.074;8.822;2022-11-09T16:07:14;14.50;99.90
6758;DHT22;3416;53.074;8.822;2022-11-09T16:09:42;14.50;99.90
6758;DHT22;3416;53.074;8.822;2022-11-09T16:12:11;14.40;99.90
6758;DHT22;3416;53.074;8.822;2022-11-09T16:14:40;14.40;99.90
6758;DHT22;3416;53.074;8.822;2022-11-09T16:17:08;14.40;99.90
6758;DHT22;3416;53.074;8.822;2022-11-09T16:19:35;14.40;99.90
6758;DHT22;3416;53.074;8.822;2022-11-09T16:22:04;14.40;99.90
6758;DHT22;3416;53.074;8.822;2022-11-09T16:24:33;14.40;99.90
6758;DHT22;3416;53.074;8.822;2022-11-09T16:27:00;14.30;99.90
6758;DHT22;3416;53.074;8.822;2022-11-09T16:29:29;14.20;99.90
6758;DHT22;3416;53.074;8.822;2022-11-09T16:31:57;14.20;99.90
6758;DHT22;3416;53.074;8.822;2022-11-09T16:34:25;14.10;99.90
6758;DHT22;3416;53.074;8.822;2022-11-09T16:36:52;14.10;99.90
6758;DHT22;3416;53.074;8.822;2022-11-09T16:39:19;14.10;99.90
6758;DHT22;3416;53.074;8.822;2022-11-09T16:41:48;14.10;99.90